Time;durP1;ratioP1;P1;durP2;ratioP2;P2;SDS_P1;SDS_P2;PMS_P1;PMS_P2;Temp;Humidity;BMP_temperature;BMP_pressure;BME280_temperature;BME280_humidity;BME280_pressure;Samples;Min_cycle;Max_cycle;Signal;HPM_P1;HPM_P2
2023/03/09 00:00:51;;;;;;;1.23;1.23;;;;;;;3.27;87.83;98416.78;5146620;28;20034;-80
2023/03/09 00:03:21;;;;;;;1.08;1.08;;;;;;;3.19;87.70;98392.84;5144571;28;20054;-79
2023/03/09 00:05:54;;;;;;;1.33;1.33;;;;;;;3.29;85.92;98375.25;5144324;28;20051;-80
2023/03/09 00:08:28;;;;;;;1.90;1.80;;;;;;;3.40;85.38;98378.31;5160376;28;20045;-79
2023/03/09 00:10:58;;;;;;;;;;;;;;;3.29;85.95;98377.81;5156194;28;20283;-79
2023/03/09 00:13:28;;;;;;;0.85;0.85;;;;;;;3.26;85.32;98380.53;5143569;28;19920;-78
2023/03/09 00:16:20;;;;;;;1.13;1.13;;;;;;;3.27;85.90;98361.47;5136186;28;20498;-79
2023/03/09 00:18:53;;;;;;;1.00;1.00;;;;;;;3.29;85.40;98351.91;5155921;28;20038;-79
2023/03/09 00:21:38;;;;;;;0.93;0.93;;;;;;;3.45;84.83;98358.25;5146118;28;20122;-79
2023/03/09 00:24:18;;;;;;;4.30;2.45;;;;;;;3.42;85.04;98383.44;5143291;28;20031;-80
2023/03/09 00:26:51;;;;;;;1.05;1.05;;;;;;;3.45;84.30;98371.19;5129932;28;20043;-79
2023/03/09 00:29:22;;;;;;;0.95;0.95;;;;;;;3.36;84.71;98371.53;5158813;28;20037;-79
2023/03/09 00:31:53;;;;;;;0.90;0.90;;;;;;;3.43;84.34;98373.00;5131900;28;20113;-79
2023/03/09 00:34:24;;;;;;;1.45;1.35;;;;;;;3.45;84.04;98366.00;5148100;28;20019;-79
2023/03/09 00:36:54;;;;;;;1.27;1.27;;;;;;;3.29;85.02;98367.47;5150321;28;20441;-80
2023/03/09 00:39:24;;;;;;;0.90;0.90;;;;;;;3.34;85.06;98364.72;5148995;28;20026;-79
2023/03/09 00:41:55;;;;;;;1.48;1.38;;;;;;;3.50;84.71;98391.78;5138135;28;20054;-79
2023/03/09 00:44:25;;;;;;;1.70;1.63;;;;;;;3.32;85.41;98403.66;5147300;28;20077;-79
2023/03/09 00:46:56;;;;;;;1.48;1.38;;;;;;;3.18;86.19;98406.72;5126810;28;20046;-78
2023/03/09 00:49:26;;;;;;;2.20;2.10;;;;;;;3.25;85.28;98403.00;5128946;28;20057;-80
2023/03/09 00:51:57;;;;;;;1.10;1.10;;;;;;;3.31;84.30;98404.53;5149400;28;20043;-78
2023/03/09 00:54:27;;;;;;;1.98;1.65;;;;;;;3.37;83.76;98396.56;5144047;28;20037;-78
2023/03/09 00:57:01;;;;;;;1.95;1.85;;;;;;;3.35;84.33;98402.69;5141885;28;20039;-78
2023/03/09 00:59:31;;;;;;;2.13;2.03;;;;;;;3.35;84.28;98408.72;5148787;28;20054;-78
2023/03/09 01:02:02;;;;;;;2.03;1.92;;;;;;;3.41;84.15;98405.94;5148376;28;20085;-78
2023/03/09 01:04:33;;;;;;;1.63;1.52;;;;;;;3.35;83.74;98415.66;5132714;28;20042;-78
2023/03/09 01:07:04;;;;;;;2.30;2.17;;;;;;;3.41;83.74;98412.84;5143512;28;20043;-78
2023/03/09 01:09:39;;;;;;;1.65;1.55;;;;;;;3.41;83.03;98413.72;5146248;28;20088;-80
2023/03/09 01:12:09;;;;;;;2.60;2.40;;;;;;;3.50;83.11;98422.06;5145966;28;20018;-78
2023/03/09 01:14:40;;;;;;;1.77;1.67;;;;;;;3.54;83.04;98413.25;5143681;28;20061;-79
2023/03/09 01:17:10;;;;;;;2.03;1.45;;;;;;;3.51;83.20;98408.19;5128511;28;20104;-79
2023/03/09 01:19:41;;;;;;;1.10;1.10;;;;;;;3.45;83.62;98415.28;5165163;28;20077;-80
2023/03/09 01:22:12;;;;;;;4.05;1.85;;;;;;;3.37;83.70;98399.16;5148129;28;20018;-79
2023/03/09 01:24:42;;;;;;;7.43;3.33;;;;;;;3.19;85.67;98395.44;5133407;28;20082;-80
2023/03/09 01:27:13;;;;;;;1.77;1.67;;;;;;;3.25;84.88;98405.59;5146386;28;20030;-79
2023/03/09 01:29:43;;;;;;;1.13;1.13;;;;;;;3.38;83.87;98408.63;5145193;28;20028;-80
2023/03/09 01:32:14;;;;;;;1.23;1.23;;;;;;;3.40;83.54;98417.19;5148636;28;20125;-79
2023/03/09 01:34:44;;;;;;;0.50;0.50;;;;;;;3.19;85.06;98407.53;5141326;28;20037;-80
2023/03/09 01:37:14;;;;;;;2.08;1.95;;;;;;;3.28;84.52;98425.38;5146397;28;20022;-80
2023/03/09 01:39:45;;;;;;;2.70;2.50;;;;;;;3.39;84.20;98450.97;5146195;28;20121;-80
2023/03/09 01:42:15;;;;;;;2.47;2.28;;;;;;;3.29;84.33;98450.41;5152285;28;20030;-79
2023/03/09 01:45:09;;;;;;;6.93;2.90;;;;;;;3.32;84.25;98442.53;5143575;28;20085;-79
2023/03/09 01:47:39;;;;;;;4.17;3.07;;;;;;;3.29;84.97;98453.00;5164199;28;20117;-79
2023/03/09 01:50:10;;;;;;;0.93;0.93;;;;;;;3.24;85.15;98475.63;5125703;28;20377;-80
2023/03/09 01:52:44;;;;;;;2.42;2.20;;;;;;;3.17;85.51;98480.16;5149719;28;20029;-78
2023/03/09 01:55:20;;;;;;;2.42;2.15;;;;;;;2.88;87.37;98488.88;5141976;28;20039;-79
2023/03/09 01:57:58;;;;;;;5.20;3.28;;;;;;;3.07;86.55;98489.13;5130594;28;20022;-79
2023/03/09 02:00:29;;;;;;;1.38;1.38;;;;;;;3.05;86.46;98503.91;5156114;28;20051;-79
2023/03/09 02:03:09;;;;;;;2.92;2.25;;;;;;;3.10;86.07;98502.84;5131282;28;20126;-79
2023/03/09 02:05:42;;;;;;;2.47;2.22;;;;;;;3.04;86.55;98510.81;5142028;28;20041;-79
2023/03/09 02:08:13;;;;;;;0.80;0.80;;;;;;;2.92;86.84;98525.00;5140759;28;20034;-79
2023/03/09 02:10:55;;;;;;;1.88;1.77;;;;;;;2.78;88.16;98535.78;5158341;28;20742;-79
2023/03/09 02:13:30;;;;;;;1.20;1.20;;;;;;;2.63;88.42;98531.06;5147798;28;20031;-79
2023/03/09 02:16:01;;;;;;;1.15;1.15;;;;;;;2.78;87.63;98537.53;5129064;28;20096;-79
2023/03/09 02:18:32;;;;;;;2.05;1.85;;;;;;;2.69;88.79;98546.41;5140923;28;20034;-79
2023/03/09 02:21:18;;;;;;;7.43;3.80;;;;;;;2.70;88.58;98544.69;5142333;28;20052;-79
2023/03/09 02:23:57;;;;;;;9.27;4.20;;;;;;;2.92;87.47;98539.72;5127139;28;20041;-79
2023/03/09 02:26:32;;;;;;;1.42;1.42;;;;;;;2.85;87.37;98549.41;5149510;28;20081;-79
2023/03/09 02:29:03;;;;;;;2.97;2.78;;;;;;;2.77;87.94;98549.63;5136210;28;20031;-79
2023/03/09 02:31:33;;;;;;;1.48;1.30;;;;;;;2.82;87.39;98562.44;5137223;28;20736;-79
2023/03/09 02:34:04;;;;;;;1.95;1.80;;;;;;;2.80;88.66;98567.66;5146482;28;20042;-80
2023/03/09 02:36:34;;;;;;;0.73;0.73;;;;;;;2.76;88.16;98575.56;5144873;28;20617;-79
2023/03/09 02:39:18;;;;;;;1.40;1.38;;;;;;;2.55;89.87;98572.72;5128793;28;20074;-78
2023/03/09 02:41:50;;;;;;;;;;;;;;;2.68;89.25;98596.53;5157464;28;20042;-78
2023/03/09 02:44:20;;;;;;;2.55;2.35;;;;;;;2.69;88.80;98598.19;5147767;28;19910;-78
2023/03/09 02:46:51;;;;;;;1.23;1.23;;;;;;;2.75;88.60;98587.69;5126258;28;20157;-78
2023/03/09 02:49:21;;;;;;;1.75;1.65;;;;;;;2.87;87.78;98599.41;5142082;28;20038;-79
2023/03/09 02:51:52;;;;;;;0.75;0.75;;;;;;;2.60;89.79;98611.44;5144215;28;20505;-79
2023/03/09 02:54:22;;;;;;;1.23;1.23;;;;;;;2.71;89.10;98617.13;5142848;28;20712;-79
2023/03/09 02:56:52;;;;;;;1.60;1.50;;;;;;;2.77;87.73;98610.94;5142664;28;20058;-78
2023/03/09 02:59:23;;;;;;;1.55;1.25;;;;;;;2.77;88.21;98601.41;5142666;28;20038;-79
2023/03/09 03:01:54;;;;;;;2.22;1.85;;;;;;;2.87;87.51;98599.41;5131713;28;20042;-78
2023/03/09 03:04:24;;;;;;;0.95;0.95;;;;;;;2.94;86.66;98600.94;5130891;28;20044;-79
2023/03/09 03:06:55;;;;;;;0.60;0.60;;;;;;;2.89;86.73;98612.31;5141364;28;20066;-79
2023/03/09 03:09:25;;;;;;;3.03;2.67;;;;;;;3.01;86.23;98617.16;5141449;28;20030;-80
2023/03/09 03:11:56;;;;;;;2.83;2.65;;;;;;;2.96;86.62;98619.00;5129380;28;20653;-80
2023/03/09 03:14:27;;;;;;;1.98;1.83;;;;;;;2.75;87.66;98631.72;5124661;28;20101;-80
2023/03/09 03:16:58;;;;;;;1.98;1.88;;;;;;;2.62;88.88;98630.34;5142432;28;20588;-80
2023/03/09 03:19:28;;;;;;;1.92;1.83;;;;;;;2.67;89.23;98638.84;5145118;28;20733;-79
2023/03/09 03:21:59;;;;;;;3.22;2.90;;;;;;;2.89;87.52;98635.63;5142288;28;20043;-80
2023/03/09 03:24:29;;;;;;;1.42;1.17;;;;;;;2.90;86.87;98637.34;5148729;28;20037;-80
2023/03/09 03:27:00;;;;;;;1.50;1.38;;;;;;;3.00;86.19;98638.75;5136776;28;20801;-80
2023/03/09 03:29:31;;;;;;;2.15;2.05;;;;;;;2.93;86.99;98640.69;5132938;28;20018;-79
2023/03/09 03:32:02;;;;;;;2.38;2.17;;;;;;;2.99;85.33;98630.13;5146029;28;20039;-79
2023/03/09 03:34:33;;;;;;;1.98;1.88;;;;;;;3.09;85.91;98643.69;5135820;28;20362;-78
2023/03/09 03:37:04;;;;;;;3.85;3.13;;;;;;;2.84;86.97;98640.94;5142613;28;20062;-79
2023/03/09 03:39:34;;;;;;;0.82;0.82;;;;;;;2.97;86.00;98647.47;5163665;28;20018;-79
2023/03/09 03:42:05;;;;;;;7.90;4.15;;;;;;;3.03;86.19;98654.19;5132318;28;20034;-79
2023/03/09 03:44:35;;;;;;;4.88;3.33;;;;;;;2.92;87.04;98661.47;5144537;28;20035;-79
2023/03/09 03:47:06;;;;;;;1.92;1.83;;;;;;;2.91;86.11;98681.31;5145144;28;20085;-79
2023/03/09 03:49:36;;;;;;;1.80;1.70;;;;;;;2.93;86.34;98676.94;5144780;28;20498;-79
2023/03/09 03:52:07;;;;;;;3.08;2.88;;;;;;;2.91;86.53;98683.91;5131588;28;20509;-78
2023/03/09 03:54:38;;;;;;;4.28;2.85;;;;;;;2.98;86.09;98692.38;5127502;28;20034;-79
2023/03/09 03:57:08;;;;;;;3.28;3.08;;;;;;;2.93;86.21;98691.66;5151156;28;20033;-80
2023/03/09 03:59:39;;;;;;;3.47;3.17;;;;;;;2.97;86.02;98694.13;5144189;28;20065;-80
2023/03/09 04:02:09;;;;;;;1.42;1.42;;;;;;;2.92;86.16;98693.38;5146983;28;20066;-80
2023/03/09 04:04:40;;;;;;;1.13;1.10;;;;;;;2.79;87.16;98712.75;5146676;28;20026;-79
2023/03/09 04:07:10;;;;;;;1.80;1.73;;;;;;;2.94;86.24;98724.41;5130143;28;20033;-79
2023/03/09 04:09:40;;;;;;;3.22;2.92;;;;;;;2.79;87.33;98720.53;5148350;28;20039;-79
2023/03/09 04:12:11;;;;;;;2.65;2.50;;;;;;;2.98;86.38;98720.84;5150773;28;20063;-79
2023/03/09 04:14:41;;;;;;;2.67;2.53;;;;;;;3.04;85.36;98725.84;5149651;28;20022;-78
2023/03/09 04:17:12;;;;;;;1.35;1.35;;;;;;;2.99;85.04;98728.56;5138612;28;20103;-79
2023/03/09 04:19:42;;;;;;;5.30;4.45;;;;;;;3.00;85.10;98724.25;5131335;28;20106;-79
2023/03/09 04:22:13;;;;;;;2.35;2.25;;;;;;;3.06;85.60;98729.25;5145180;28;20046;-79
2023/03/09 04:24:43;;;;;;;1.10;1.10;;;;;;;3.10;84.42;98722.25;5132864;28;20520;-79
2023/03/09 04:27:13;;;;;;;4.45;4.05;;;;;;;3.13;84.80;98720.41;5141469;28;20422;-79
2023/03/09 04:29:44;;;;;;;6.78;3.88;;;;;;;3.05;85.72;98726.72;5120890;28;20018;-79
2023/03/09 04:32:14;;;;;;;2.53;2.42;;;;;;;3.12;84.37;98733.44;5138749;28;20043;-80
2023/03/09 04:34:45;;;;;;;2.15;2.05;;;;;;;3.13;85.32;98729.94;5143307;28;20033;-80
2023/03/09 04:37:15;;;;;;;3.15;2.95;;;;;;;3.14;84.56;98748.03;5128452;28;20521;-80
2023/03/09 04:39:46;;;;;;;2.53;2.42;;;;;;;3.16;84.29;98750.56;5147062;28;20023;-80
2023/03/09 04:42:16;;;;;;;1.88;1.77;;;;;;;3.23;84.81;98756.44;5163957;28;20030;-80
2023/03/09 04:44:47;;;;;;;2.53;2.35;;;;;;;3.17;84.78;98764.41;5153365;28;20054;-79
2023/03/09 04:47:17;;;;;;;2.88;2.67;;;;;;;3.23;84.58;98756.44;5130616;28;20113;-80
2023/03/09 04:49:48;;;;;;;1.13;1.13;;;;;;;3.00;86.35;98757.94;5130620;28;20114;-80
2023/03/09 04:52:19;;;;;;;3.10;2.90;;;;;;;3.13;84.77;98767.06;5156823;28;20610;-80
2023/03/09 04:54:50;;;;;;;5.75;1.80;;;;;;;3.21;84.77;98758.22;5161660;28;20049;-80
2023/03/09 04:57:21;;;;;;;5.28;4.03;;;;;;;3.34;84.07;98762.19;5145465;28;20015;-79
2023/03/09 04:59:51;;;;;;;1.20;1.20;;;;;;;3.25;84.12;98770.22;5165458;28;20030;-79
2023/03/09 05:02:22;;;;;;;2.38;2.25;;;;;;;3.30;83.68;98760.56;5159380;28;20588;-80
2023/03/09 05:04:54;;;;;;;1.63;1.52;;;;;;;3.26;83.56;98762.38;5143466;28;20054;-80
2023/03/09 05:07:24;;;;;;;6.93;2.67;;;;;;;3.27;84.21;98777.06;5147466;28;20249;-81
2023/03/09 05:09:55;;;;;;;2.53;2.33;;;;;;;3.20;84.18;98782.44;5129021;28;20039;-81
2023/03/09 05:12:31;;;;;;;8.38;2.10;;;;;;;3.27;83.65;98779.63;5142617;28;20055;-80
2023/03/09 05:15:01;;;;;;;1.05;1.05;;;;;;;3.33;83.34;98772.56;5124575;28;20047;-79
2023/03/09 05:17:32;;;;;;;0.75;0.73;;;;;;;3.27;84.01;98796.91;5142449;28;20038;-79
2023/03/09 05:20:14;;;;;;;1.75;1.65;;;;;;;3.08;84.77;98801.78;5148077;28;20423;-78
2023/03/09 05:22:44;;;;;;;2.50;2.40;;;;;;;3.15;84.62;98800.69;5127219;28;20030;-78
2023/03/09 05:25:15;;;;;;;0.55;0.55;;;;;;;3.06;85.00;98807.00;5162232;28;20045;-78
2023/03/09 05:27:45;;;;;;;2.13;2.03;;;;;;;3.17;84.19;98811.88;5126161;28;20944;-79
2023/03/09 05:30:16;;;;;;;1.05;1.00;;;;;;;3.09;85.30;98806.94;5160146;28;20043;-79
2023/03/09 05:32:49;;;;;;;1.02;1.02;;;;;;;3.07;84.31;98800.94;5149804;28;20032;-79
2023/03/09 05:35:20;;;;;;;1.05;1.05;;;;;;;3.18;84.30;98803.22;5157075;28;20231;-78
2023/03/09 05:37:50;;;;;;;1.67;1.52;;;;;;;3.18;83.88;98802.38;5123007;28;20026;-79
2023/03/09 05:40:22;;;;;;;0.95;0.95;;;;;;;3.20;84.36;98818.72;5142037;28;20054;-79
2023/03/09 05:42:52;;;;;;;3.13;2.28;;;;;;;3.12;83.58;98826.72;5147647;28;20044;-78
2023/03/09 05:45:23;;;;;;;2.33;1.90;;;;;;;3.13;84.37;98828.44;5160274;28;20518;-78
2023/03/09 05:47:53;;;;;;;1.65;1.58;;;;;;;3.24;83.47;98818.59;5151678;28;20077;-77
2023/03/09 05:50:23;;;;;;;3.45;3.20;;;;;;;3.23;83.62;98826.44;5138844;28;20583;-79
2023/03/09 05:52:54;;;;;;;1.73;1.60;;;;;;;3.36;83.40;98826.94;5147096;28;20482;-78
2023/03/09 05:55:24;;;;;;;1.23;1.13;;;;;;;3.29;83.52;98821.94;5147036;28;20051;-78
2023/03/09 05:57:55;;;;;;;1.10;1.10;;;;;;;3.27;82.82;98830.63;5148890;28;20131;-78
2023/03/09 06:00:25;;;;;;;1.35;1.30;;;;;;;3.38;83.05;98836.38;5149256;28;20038;-78
2023/03/09 06:02:56;;;;;;;11.40;1.85;;;;;;;3.10;83.77;98842.28;5129963;28;20042;-78
2023/03/09 06:05:26;;;;;;;1.95;1.85;;;;;;;3.17;83.79;98855.94;5159934;28;20042;-78
2023/03/09 06:07:56;;;;;;;2.15;2.05;;;;;;;3.18;83.46;98856.81;5144924;28;20156;-77
2023/03/09 06:10:27;;;;;;;1.70;1.65;;;;;;;3.25;83.72;98866.94;5150332;28;20870;-78
2023/03/09 06:12:57;;;;;;;2.90;1.42;;;;;;;3.08;83.93;98859.63;5131658;28;20546;-78
2023/03/09 06:15:28;;;;;;;1.42;1.40;;;;;;;3.20;83.69;98868.84;5141183;28;20049;-78
2023/03/09 06:17:58;;;;;;;1.52;1.42;;;;;;;3.22;83.73;98868.78;5146469;28;20031;-78
2023/03/09 06:20:28;;;;;;;3.53;3.20;;;;;;;3.22;83.86;98873.97;5146589;28;20548;-78
2023/03/09 06:22:59;;;;;;;1.10;1.10;;;;;;;3.07;84.66;98865.72;5127126;28;20030;-77
2023/03/09 06:25:29;;;;;;;0.80;0.80;;;;;;;3.06;84.65;98869.19;5143740;28;20042;-79
2023/03/09 06:28:00;;;;;;;2.80;2.60;;;;;;;3.13;83.37;98870.72;5141726;28;20528;-78
2023/03/09 06:30:31;;;;;;;7.15;4.75;;;;;;;3.13;84.05;98880.25;5142964;28;20122;-78
2023/03/09 06:33:01;;;;;;;2.50;2.38;;;;;;;3.11;83.99;98888.03;5137406;28;20507;-78
2023/03/09 06:35:33;;;;;;;2.30;2.20;;;;;;;3.10;84.15;98891.53;5142437;28;20151;-78
2023/03/09 06:38:03;;;;;;;2.58;2.40;;;;;;;3.13;84.39;98891.47;5128962;28;20022;-79
2023/03/09 06:40:34;;;;;;;1.13;1.10;;;;;;;3.20;84.52;98892.16;5142322;28;20034;-78
2023/03/09 06:43:05;;;;;;;1.15;1.15;;;;;;;3.24;83.64;98892.94;5146813;28;20067;-78
2023/03/09 06:45:35;;;;;;;1.58;1.52;;;;;;;3.20;83.65;98902.53;5143916;28;20129;-78
2023/03/09 06:48:08;;;;;;;2.53;2.35;;;;;;;3.28;83.28;98902.31;5143500;28;20558;-78
2023/03/09 06:50:39;;;;;;;8.13;4.53;;;;;;;3.22;83.27;98903.34;5141835;28;20045;-78
2023/03/09 06:53:10;;;;;;;1.25;1.17;;;;;;;3.19;83.58;98903.41;5127085;28;20564;-78
2023/03/09 06:55:41;;;;;;;2.85;2.63;;;;;;;3.21;83.67;98916.31;5126303;28;20398;-78
2023/03/09 06:58:12;;;;;;;1.60;1.60;;;;;;;3.23;83.78;98922.31;5128925;28;20030;-78
2023/03/09 07:00:46;;;;;;;2.80;2.60;;;;;;;3.21;83.65;98918.91;5143511;28;20466;-78
2023/03/09 07:03:18;;;;;;;3.22;2.92;;;;;;;3.24;83.42;98911.06;5141421;28;20798;-77
2023/03/09 07:05:49;;;;;;;0.75;0.75;;;;;;;3.24;83.86;98921.44;5146458;28;20699;-78
2023/03/09 07:08:20;;;;;;;2.63;2.53;;;;;;;3.26;83.88;98930.03;5147911;28;20454;-79
2023/03/09 07:10:51;;;;;;;1.85;1.77;;;;;;;3.26;84.20;98938.66;5144933;28;20098;-78
2023/03/09 07:13:21;;;;;;;0.70;0.70;;;;;;;3.21;85.64;98945.69;5130410;28;20023;-78
2023/03/09 07:15:51;;;;;;;1.30;1.30;;;;;;;3.14;85.46;98963.13;5144134;28;20042;-76
2023/03/09 07:18:22;;;;;;;1.58;1.50;;;;;;;3.22;85.61;98962.97;5141133;28;20498;-77
2023/03/09 07:20:52;;;;;;;1.20;1.20;;;;;;;3.23;85.06;98966.38;5147281;28;20048;-77
2023/03/09 07:23:23;;;;;;;1.92;1.83;;;;;;;3.29;84.99;98963.63;5146962;28;20022;-76
2023/03/09 07:25:53;;;;;;;4.05;3.67;;;;;;;3.38;84.37;98972.94;5126417;28;20493;-78
2023/03/09 07:28:24;;;;;;;1.63;1.52;;;;;;;3.39;84.53;98969.44;5146935;28;20068;-78
2023/03/09 07:30:54;;;;;;;2.28;2.17;;;;;;;3.36;84.83;98969.53;5140533;28;20038;-78
2023/03/09 07:33:24;;;;;;;2.47;2.33;;;;;;;3.32;85.89;98971.34;5126201;28;20034;-77
2023/03/09 07:35:55;;;;;;;1.90;1.80;;;;;;;3.31;84.99;98978.25;5146950;28;20042;-78
2023/03/09 07:38:25;;;;;;;2.60;2.40;;;;;;;3.43;85.15;98978.84;5156928;28;20015;-78
2023/03/09 07:41:00;;;;;;;4.10;3.63;;;;;;;3.35;86.01;98978.19;5141735;28;20053;-78
2023/03/09 07:43:31;;;;;;;2.30;2.17;;;;;;;3.39;85.96;98991.03;5135269;28;20015;-78
2023/03/09 07:46:05;;;;;;;2.08;2.00;;;;;;;3.41;85.38;98988.38;5148578;28;20122;-78
2023/03/09 07:48:37;;;;;;;1.95;1.85;;;;;;;3.42;85.95;98990.97;5146809;28;20133;-79
2023/03/09 07:51:08;;;;;;;0.80;0.80;;;;;;;3.45;86.21;98995.22;5129586;28;20118;-78
2023/03/09 07:53:39;;;;;;;3.72;3.45;;;;;;;3.43;86.82;99008.19;5131494;28;20469;-80
2023/03/09 07:56:10;;;;;;;1.75;1.65;;;;;;;3.50;85.69;99015.84;5130271;28;20046;-79
2023/03/09 07:58:41;;;;;;;2.35;2.20;;;;;;;3.52;86.31;99016.63;5159216;28;20030;-77
2023/03/09 08:01:15;;;;;;;2.90;2.67;;;;;;;3.53;86.11;99020.94;5142630;28;20130;-76
2023/03/09 08:03:46;;;;;;;2.00;1.90;;;;;;;3.58;86.20;99026.88;5143800;28;20031;-77
2023/03/09 08:06:17;;;;;;;1.73;1.63;;;;;;;3.57;86.18;99033.78;5142445;28;20777;-79
2023/03/09 08:08:48;;;;;;;2.03;1.92;;;;;;;3.59;87.18;99038.94;5148396;28;20131;-76
2023/03/09 08:11:19;;;;;;;1.92;1.83;;;;;;;3.64;86.58;99051.81;5145445;28;20641;-78
2023/03/09 08:13:49;;;;;;;2.40;1.60;;;;;;;3.54;87.64;99045.97;5157705;28;20037;-76
2023/03/09 08:16:19;;;;;;;0.73;0.73;;;;;;;3.61;87.00;99057.91;5159552;28;20528;-76
2023/03/09 08:18:50;;;;;;;1.60;1.52;;;;;;;3.64;86.55;99062.19;5150378;28;20056;-77
2023/03/09 08:21:20;;;;;;;1.90;1.80;;;;;;;3.62;87.22;99059.59;5128034;28;20059;-77
2023/03/09 08:23:51;;;;;;;0.73;0.73;;;;;;;3.66;86.73;99066.44;5143821;28;20033;-77
2023/03/09 08:26:21;;;;;;;0.93;0.93;;;;;;;3.61;87.30;99071.72;5146051;28;20033;-77
2023/03/09 08:28:52;;;;;;;1.88;1.77;;;;;;;3.71;87.17;99072.34;5127917;28;20054;-81
2023/03/09 08:31:23;;;;;;;1.45;1.35;;;;;;;3.74;86.93;99074.88;5134579;28;20116;-78
2023/03/09 08:33:54;;;;;;;0.82;0.82;;;;;;;3.86;86.22;99078.91;5139018;28;20037;-78
2023/03/09 08:36:24;;;;;;;2.88;2.67;;;;;;;3.92;85.52;99083.06;5144769;28;20413;-77
2023/03/09 08:38:56;;;;;;;1.38;1.33;;;;;;;4.01;84.97;99088.00;5143261;28;20031;-77
2023/03/09 08:41:26;;;;;;;0.50;0.50;;;;;;;3.92;86.55;99094.28;5147103;28;20038;-78
2023/03/09 08:43:57;;;;;;;0.90;0.90;;;;;;;3.91;86.80;99104.72;5149615;28;20536;-77
2023/03/09 08:46:28;;;;;;;1.33;1.30;;;;;;;3.92;86.71;99098.66;5131712;28;20038;-77
2023/03/09 08:49:00;;;;;;;1.95;1.85;;;;;;;4.00;86.50;99095.84;5132407;28;20043;-77
2023/03/09 08:51:31;;;;;;;1.70;1.60;;;;;;;4.04;86.24;99097.47;5151269;28;20073;-77
2023/03/09 08:54:01;;;;;;;1.33;1.33;;;;;;;3.97;86.88;99111.50;5133406;28;20024;-77
2023/03/09 08:56:31;;;;;;;1.35;1.30;;;;;;;4.07;86.50;99116.41;5140562;28;20046;-77
2023/03/09 08:59:02;;;;;;;4.80;2.30;;;;;;;3.99;87.27;99130.47;5149132;28;20035;-77
2023/03/09 09:01:32;;;;;;;1.73;1.63;;;;;;;4.11;86.29;99135.34;5131907;28;20550;-78
2023/03/09 09:04:04;;;;;;;3.17;2.95;;;;;;;4.13;86.55;99143.09;5151214;28;20093;-78
2023/03/09 09:06:34;;;;;;;3.20;2.55;;;;;;;4.16;86.51;99143.03;5147188;28;20054;-77
2023/03/09 09:09:04;;;;;;;6.90;4.05;;;;;;;4.13;86.20;99132.69;5145678;28;20026;-78
2023/03/09 09:11:36;;;;;;;3.03;2.80;;;;;;;4.17;87.18;99149.91;5139805;28;20038;-77
2023/03/09 09:14:07;;;;;;;1.30;1.30;;;;;;;4.14;87.13;99160.38;5149968;28;20665;-78
2023/03/09 09:16:37;;;;;;;1.48;1.38;;;;;;;4.22;86.82;99159.28;5147521;28;20026;-78
2023/03/09 09:19:08;;;;;;;1.27;1.15;;;;;;;4.24;86.78;99161.84;5152939;28;20030;-79
2023/03/09 09:21:38;;;;;;;0.57;0.57;;;;;;;4.25;86.58;99160.97;5150328;28;20047;-79
2023/03/09 09:24:09;;;;;;;7.32;2.85;;;;;;;4.35;86.27;99170.19;5131800;28;20031;-78
2023/03/09 09:26:40;;;;;;;5.65;2.00;;;;;;;4.30;86.70;99169.47;5123530;28;20711;-77
2023/03/09 09:29:11;;;;;;;1.30;1.23;;;;;;;4.33;86.19;99166.81;5156213;28;20054;-77
2023/03/09 09:31:43;;;;;;;1.13;1.13;;;;;;;4.31;87.47;99159.91;5146309;28;20126;-78
2023/03/09 09:34:13;;;;;;;2.05;1.95;;;;;;;4.31;87.66;99147.81;5123526;28;20037;-78
2023/03/09 09:36:44;;;;;;;1.92;1.83;;;;;;;4.39;87.57;99156.25;5142878;28;20089;-79
2023/03/09 09:39:14;;;;;;;0.95;0.95;;;;;;;4.53;87.29;99157.59;5147089;28;20568;-79
2023/03/09 09:41:51;;;;;;;4.40;2.85;;;;;;;4.41;88.34;99172.63;5143779;28;20053;-80
2023/03/09 09:44:29;;;;;;;1.10;1.10;;;;;;;4.43;88.27;99176.91;5131218;28;20057;-78
2023/03/09 09:47:03;;;;;;;0.60;0.60;;;;;;;4.48;86.92;99178.50;5144271;28;20073;-79
2023/03/09 09:49:47;;;;;;;1.95;1.85;;;;;;;4.38;86.96;99172.72;5152001;28;20027;-79
2023/03/09 09:52:34;;;;;;;0.82;0.82;;;;;;;4.56;87.23;99173.13;5150120;28;20069;-79
2023/03/09 09:55:05;;;;;;;1.13;1.13;;;;;;;4.69;87.00;99174.47;5126536;28;20561;-80
2023/03/09 09:57:51;;;;;;;1.92;1.83;;;;;;;4.61;86.96;99179.03;5170059;28;20038;-78
2023/03/09 10:00:24;;;;;;;2.15;1.73;;;;;;;4.71;86.96;99187.44;5121981;28;20586;-78
2023/03/09 10:02:54;;;;;;;1.70;1.60;;;;;;;4.64;86.78;99189.34;5145602;28;20034;-78
2023/03/09 10:05:42;;;;;;;1.20;1.20;;;;;;;4.70;86.81;99201.31;5151082;28;20042;-79
2023/03/09 10:08:25;;;;;;;1.75;1.65;;;;;;;4.82;86.51;99200.13;5148940;28;20027;-76
2023/03/09 10:11:05;;;;;;;1.67;1.58;;;;;;;4.87;86.45;99213.84;5128425;28;20034;-79
2023/03/09 10:13:47;;;;;;;1.25;1.25;;;;;;;4.93;86.58;99228.41;5143565;28;20089;-78
2023/03/09 10:16:23;;;;;;;1.90;1.80;;;;;;;4.89;85.52;99222.44;5149435;28;20034;-78
2023/03/09 10:18:58;;;;;;;0.90;0.90;;;;;;;5.00;85.78;99204.78;5147906;28;20057;-78
2023/03/09 10:21:44;;;;;;;1.90;1.80;;;;;;;5.08;85.66;99203.75;5148035;28;20506;-79
2023/03/09 10:24:23;;;;;;;2.97;2.80;;;;;;;5.16;85.19;99205.22;5144218;28;20040;-78
2023/03/09 10:27:08;;;;;;;2.35;2.20;;;;;;;5.22;84.63;99214.59;5150711;28;20886;-78
2023/03/09 10:29:47;;;;;;;2.88;2.13;;;;;;;5.25;84.27;99219.69;5129069;28;20027;-78
2023/03/09 10:32:28;;;;;;;1.58;1.50;;;;;;;5.17;84.89;99219.91;5160206;28;20038;-77
2023/03/09 10:35:18;;;;;;;3.30;1.13;;;;;;;5.12;84.62;99231.34;5151258;28;20596;-78
2023/03/09 10:37:50;;;;;;;1.52;1.50;;;;;;;5.03;85.55;99229.88;5141490;28;20065;-78
2023/03/09 10:40:29;;;;;;;1.15;1.15;;;;;;;5.04;85.16;99226.38;5144494;28;20100;-78
2023/03/09 10:43:00;;;;;;;2.78;2.60;;;;;;;5.07;85.19;99231.47;5128629;28;20069;-77
2023/03/09 10:45:32;;;;;;;3.97;2.03;;;;;;;5.15;85.44;99231.25;5162748;28;20067;-78
2023/03/09 10:48:06;;;;;;;2.88;2.78;;;;;;;5.12;84.69;99233.94;5141732;28;20038;-78
2023/03/09 10:50:55;;;;;;;1.23;1.23;;;;;;;5.17;85.29;99242.44;5131735;28;20064;-79
2023/03/09 10:53:34;;;;;;;0.80;0.80;;;;;;;5.21;84.72;99233.69;5130607;28;20059;-78
2023/03/09 10:56:13;;;;;;;2.13;2.03;;;;;;;5.23;84.88;99223.22;5131466;28;20045;-78
2023/03/09 10:58:44;;;;;;;1.73;1.63;;;;;;;5.29;84.86;99230.88;5153029;28;20026;-78
2023/03/09 11:01:22;;;;;;;0.98;0.98;;;;;;;5.33;85.14;99232.47;5124602;28;20054;-79
2023/03/09 11:03:53;;;;;;;0.80;0.80;;;;;;;5.27;85.50;99238.69;5131388;28;20035;-79
2023/03/09 11:06:37;;;;;;;4.15;1.77;;;;;;;5.24;85.21;99238.81;5143116;28;20077;-78
2023/03/09 11:09:10;;;;;;;2.30;2.20;;;;;;;5.28;85.54;99234.38;5133969;28;20082;-79
2023/03/09 11:11:41;;;;;;;;;;;;;;;5.30;85.33;99233.41;5147605;28;20042;-77
2023/03/09 11:14:31;;;;;;;3.95;1.23;;;;;;;5.34;85.45;99235.00;5128517;28;19916;-78
2023/03/09 11:17:01;;;;;;;2.15;2.05;;;;;;;5.40;85.82;99238.34;5129954;28;20030;-79
2023/03/09 11:19:32;;;;;;;3.92;3.20;;;;;;;5.41;86.00;99242.66;5152601;28;20104;-77
2023/03/09 11:22:12;;;;;;;0.85;0.85;;;;;;;5.46;85.37;99235.56;5161578;28;21203;-79
2023/03/09 11:24:45;;;;;;;2.10;2.00;;;;;;;5.58;84.64;99249.94;5143064;28;20433;-79
2023/03/09 11:27:22;;;;;;;2.72;2.20;;;;;;;5.58;84.75;99242.97;5127875;28;20038;-79
2023/03/09 11:29:56;;;;;;;3.10;2.88;;;;;;;5.50;84.33;99245.84;5145541;28;20061;-77
2023/03/09 11:32:27;;;;;;;1.85;1.58;;;;;;;5.53;84.34;99255.28;5146151;28;20037;-79
2023/03/09 11:34:59;;;;;;;1.20;1.15;;;;;;;5.60;84.42;99245.56;5127550;28;20038;-78
2023/03/09 11:37:59;;;;;;;1.15;1.15;;;;;;;5.53;84.52;99247.47;5132108;28;20027;-79
2023/03/09 11:40:33;;;;;;;2.22;2.13;;;;;;;5.63;84.56;99246.31;5143610;28;20091;-78
2023/03/09 11:43:25;;;;;;;2.28;2.17;;;;;;;5.56;84.96;99250.00;5156052;28;20035;-78
2023/03/09 11:46:00;;;;;;;2.55;2.35;;;;;;;5.63;84.07;99256.72;5149470;28;20511;-78
2023/03/09 11:48:40;;;;;;;1.95;1.85;;;;;;;5.64;84.89;99244.53;5140659;28;20029;-77
2023/03/09 11:51:21;;;;;;;1.58;1.48;;;;;;;5.73;84.33;99240.84;5158259;28;20496;-79
2023/03/09 11:53:51;;;;;;;2.20;2.10;;;;;;;5.73;84.27;99249.47;5162479;28;20042;-79
2023/03/09 11:56:29;;;;;;;0.88;0.88;;;;;;;5.77;84.69;99242.44;5161801;28;20038;-79
2023/03/09 11:59:11;;;;;;;1.05;1.05;;;;;;;5.77;84.84;99242.44;5145905;28;20078;-78
2023/03/09 12:02:10;;;;;;;1.80;1.70;;;;;;;5.87;84.42;99233.44;5147457;28;20121;-79
2023/03/09 12:04:45;;;;;;;1.08;0.98;;;;;;;5.83;85.15;99235.28;5139336;28;20555;-78
2023/03/09 12:07:31;;;;;;;1.35;1.25;;;;;;;5.75;85.29;99236.41;5147137;28;20570;-77